createdAt,value
2017-07-19T00:02:08.584Z,43.00
2017-07-19T00:05:35.952Z,43.70
2017-07-19T00:09:05.509Z,43.20
2017-07-19T00:12:32.129Z,43.30
2017-07-19T00:16:01.617Z,43.40
2017-07-19T00:19:28.107Z,43.40
2017-07-19T00:22:55.036Z,43.40
2017-07-19T00:26:21.968Z,43.40
2017-07-19T00:29:48.678Z,43.60
2017-07-19T00:33:15.384Z,43.70
2017-07-19T00:36:42.354Z,43.80
2017-07-19T00:40:09.734Z,43.90
2017-07-19T00:43:36.580Z,44.00
2017-07-19T00:47:03.713Z,44.10
2017-07-19T00:50:31.303Z,44.30
2017-07-19T00:53:57.940Z,44.50
2017-07-19T00:57:28.628Z,44.40
2017-07-19T01:00:56.033Z,44.70
2017-07-19T01:04:24.812Z,44.80
2017-07-19T01:07:52.906Z,44.90
2017-07-19T01:11:19.403Z,44.70
2017-07-19T01:14:46.280Z,44.80
2017-07-19T01:18:13.028Z,44.70
2017-07-19T01:21:40.612Z,45.10
2017-07-19T01:25:09.508Z,45.10
2017-07-19T01:28:35.959Z,45.30
2017-07-19T01:32:03.496Z,45.10
2017-07-19T01:35:30.296Z,45.20
2017-07-19T01:38:56.752Z,45.30
2017-07-19T01:42:23.764Z,45.50
2017-07-19T01:45:50.984Z,45.60
2017-07-19T01:49:17.789Z,45.50
2017-07-19T01:52:45.008Z,45.50
2017-07-19T01:56:13.232Z,46.10
2017-07-19T01:59:41.116Z,45.60
2017-07-19T02:03:07.712Z,45.50
2017-07-19T02:06:35.710Z,45.50
2017-07-19T02:10:02.656Z,45.50
2017-07-19T02:13:29.592Z,45.50
2017-07-19T02:16:56.772Z,45.40
2017-07-19T02:20:23.658Z,45.50
2017-07-19T02:23:50.420Z,45.50
2017-07-19T02:27:18.043Z,45.50
2017-07-19T02:30:44.632Z,45.50
2017-07-19T02:34:11.775Z,45.50
2017-07-19T02:37:38.414Z,45.50
2017-07-19T02:41:05.044Z,45.50
2017-07-19T02:44:31.815Z,45.50
2017-07-19T02:47:58.576Z,45.50
2017-07-19T02:51:25.478Z,45.60
2017-07-19T02:54:52.860Z,45.50
2017-07-19T02:58:19.329Z,45.80
2017-07-19T03:01:45.828Z,45.50
2017-07-19T03:05:13.825Z,45.50
2017-07-19T03:08:40.568Z,45.50
2017-07-19T03:12:07.460Z,45.50
2017-07-19T03:15:35.224Z,45.50
2017-07-19T03:19:01.668Z,45.50
2017-07-19T03:22:36.706Z,45.50
2017-07-19T03:26:03.176Z,45.60
2017-07-19T03:29:30.964Z,45.60
2017-07-19T03:32:58.555Z,45.50
2017-07-19T03:36:25.636Z,45.50
2017-07-19T03:39:52.007Z,46.00
2017-07-19T03:43:19.919Z,46.00
2017-07-19T03:46:46.447Z,46.00
2017-07-19T03:50:13.360Z,45.80
2017-07-19T03:53:40.196Z,45.80
2017-07-19T03:57:07.327Z,46.00
2017-07-19T04:00:33.837Z,45.60
2017-07-19T04:04:01.680Z,45.50
2017-07-19T04:07:31.212Z,45.60
2017-07-19T04:10:58.420Z,45.50
2017-07-19T04:14:25.532Z,45.50
2017-07-19T04:17:52.337Z,45.50
2017-07-19T04:21:19.044Z,45.50
2017-07-19T04:24:46.083Z,45.50
2017-07-19T04:28:12.711Z,46.20
2017-07-19T04:31:39.793Z,45.50
2017-07-19T04:35:06.919Z,45.50
2017-07-19T04:38:34.270Z,45.50
2017-07-19T04:42:00.948Z,45.50
2017-07-19T04:45:28.423Z,45.40
2017-07-19T04:48:54.943Z,45.40
2017-07-19T04:52:21.644Z,45.40
2017-07-19T04:55:48.711Z,45.40
2017-07-19T04:59:16.564Z,45.40
2017-07-19T05:02:43.911Z,45.40
2017-07-19T05:06:11.268Z,45.40
2017-07-19T05:09:37.828Z,45.40
2017-07-19T05:13:04.355Z,45.40
2017-07-19T05:16:32.246Z,45.40
2017-07-19T05:19:59.146Z,45.40
2017-07-19T05:23:25.784Z,45.40
2017-07-19T05:26:52.915Z,45.40
2017-07-19T05:30:20.260Z,45.40
2017-07-19T05:33:47.964Z,45.40
2017-07-19T05:37:16.713Z,45.40
2017-07-19T05:40:43.940Z,45.40
2017-07-19T05:44:10.521Z,45.50
2017-07-19T05:47:37.357Z,45.40
2017-07-19T05:51:04.273Z,45.50
2017-07-19T05:54:31.895Z,45.50
2017-07-19T05:57:59.865Z,45.60
2017-07-19T06:01:27.440Z,45.50
2017-07-19T06:04:54.029Z,45.50
2017-07-19T06:08:21.384Z,46.10
2017-07-19T06:11:48.196Z,45.50
2017-07-19T06:15:17.828Z,45.50
2017-07-19T06:18:44.536Z,45.50
2017-07-19T06:22:11.299Z,45.50
2017-07-19T06:25:38.365Z,45.50
2017-07-19T06:29:05.544Z,45.50
2017-07-19T06:32:32.104Z,45.50
2017-07-19T06:36:00.474Z,45.50
2017-07-19T06:39:27.057Z,45.50
2017-07-19T06:42:53.723Z,45.60
2017-07-19T06:46:20.614Z,45.60
2017-07-19T06:49:47.380Z,45.80
2017-07-19T06:53:13.320Z,45.80
2017-07-19T06:56:40.316Z,45.90
2017-07-19T07:00:07.788Z,46.00
2017-07-19T07:03:35.052Z,46.00
2017-07-19T07:07:01.470Z,46.00
2017-07-19T07:10:28.532Z,46.00
2017-07-19T07:13:55.102Z,46.10
2017-07-19T07:17:22.292Z,46.10
2017-07-19T07:20:49.552Z,46.20
2017-07-19T07:24:15.560Z,46.10
2017-07-19T07:27:42.633Z,46.10
2017-07-19T07:31:09.828Z,46.00
2017-07-19T07:34:37.124Z,46.20
2017-07-19T07:38:07.969Z,46.20
2017-07-19T07:41:35.178Z,46.10
2017-07-19T07:45:01.857Z,46.00
2017-07-19T07:48:29.333Z,45.90
2017-07-19T07:51:55.976Z,46.00
2017-07-19T07:55:22.464Z,46.00
2017-07-19T07:58:49.493Z,45.90
2017-07-19T08:02:15.714Z,46.00
2017-07-19T08:05:42.377Z,45.90
2017-07-19T08:09:09.215Z,45.90
2017-07-19T08:12:35.821Z,45.80
2017-07-19T08:16:02.200Z,45.90
2017-07-19T08:19:28.459Z,45.80
2017-07-19T08:22:55.919Z,45.90
2017-07-19T08:26:23.180Z,46.00
2017-07-19T08:29:50.161Z,45.90
2017-07-19T08:33:19.495Z,46.00
2017-07-19T08:36:46.068Z,46.00
2017-07-19T08:40:13.863Z,46.00
2017-07-19T08:43:40.405Z,46.00
2017-07-19T08:47:07.552Z,46.00
2017-07-19T08:50:34.397Z,46.00
2017-07-19T08:54:01.017Z,46.70
2017-07-19T08:57:27.493Z,46.00
2017-07-19T09:00:54.516Z,46.00
2017-07-19T09:04:21.625Z,46.00
2017-07-19T09:07:49.316Z,46.10
2017-07-19T09:11:16.501Z,46.10
2017-07-19T09:14:42.759Z,46.10
2017-07-19T09:18:09.631Z,46.10
2017-07-19T09:21:36.366Z,46.10
2017-07-19T09:25:03.055Z,46.10
2017-07-19T09:28:30.178Z,46.10
2017-07-19T09:31:57.512Z,46.10
2017-07-19T09:35:24.540Z,46.10
2017-07-19T09:38:51.598Z,46.20
2017-07-19T09:42:18.381Z,46.20
2017-07-19T09:45:45.096Z,46.20
2017-07-19T09:49:12.053Z,46.20
2017-07-19T09:52:39.436Z,46.20
2017-07-19T09:56:07.531Z,46.20
2017-07-19T09:59:34.049Z,46.20
2017-07-19T10:03:01.293Z,46.20
2017-07-19T10:06:27.912Z,46.20
2017-07-19T10:09:54.633Z,46.20
2017-07-19T10:13:22.028Z,46.30
2017-07-19T10:16:50.545Z,46.30
2017-07-19T10:20:16.487Z,46.30
